Time;durP1;ratioP1;P1;durP2;ratioP2;P2;SDS_P1;SDS_P2;PMS_P1;PMS_P2;Temp;Humidity;BMP_temperature;BMP_pressure;BME280_temperature;BME280_humidity;BME280_pressure;Samples;Min_cycle;Max_cycle;Signal;HPM_P1;HPM_P2
2021/12/01 00:00:37;;;;;;;0.70;0.70;;;5.30;83.00;;;;;;5045120;28;20033;-68
2021/12/01 00:03:02;;;;;;;0.80;0.80;;;5.40;82.90;;;;;;5048003;28;20060;-68
2021/12/01 00:05:30;;;;;;;0.70;0.70;;;5.40;83.00;;;;;;5047140;28;20504;-68
2021/12/01 00:07:57;;;;;;;0.73;0.73;;;5.40;83.00;;;;;;5043902;28;20112;-68
2021/12/01 00:10:25;;;;;;;0.88;0.80;;;5.40;82.90;;;;;;5045586;28;20168;-68
2021/12/01 00:12:51;;;;;;;0.85;0.85;;;5.40;82.90;;;;;;5035582;28;20025;-67
2021/12/01 00:15:18;;;;;;;0.70;0.70;;;5.40;82.80;;;;;;5032390;28;20309;-65
2021/12/01 00:17:44;;;;;;;1.20;1.00;;;5.40;82.80;;;;;;5041191;28;20571;-67
2021/12/01 00:20:13;;;;;;;0.98;0.88;;;5.40;83.60;;;;;;5041857;28;20054;-67
2021/12/01 00:22:39;;;;;;;0.70;0.70;;;5.50;82.80;;;;;;5046777;28;20036;-68
2021/12/01 00:25:07;;;;;;;0.80;0.80;;;5.50;83.20;;;;;;5043847;28;20025;-64
2021/12/01 00:27:33;;;;;;;0.73;0.73;;;5.50;82.80;;;;;;5038016;28;20041;-67
2021/12/01 00:29:59;;;;;;;0.80;0.80;;;5.50;83.50;;;;;;5047434;28;20029;-67
2021/12/01 00:32:25;;;;;;;0.73;0.73;;;5.50;82.60;;;;;;5047310;28;20965;-68
2021/12/01 00:34:52;;;;;;;2.80;1.05;;;5.50;82.60;;;;;;5045657;28;20037;-68
2021/12/01 00:37:17;;;;;;;1.08;0.90;;;5.50;82.60;;;;;;5045602;28;20041;-68
2021/12/01 00:39:44;;;;;;;0.80;0.80;;;5.60;83.60;;;;;;5046765;28;20048;-68
2021/12/01 00:42:10;;;;;;;0.73;0.63;;;5.60;82.80;;;;;;5044861;28;20044;-68
2021/12/01 00:44:36;;;;;;;0.80;0.80;;;5.60;82.80;;;;;;5038238;28;20567;-68
2021/12/01 00:49:30;;;;;;;0.80;0.80;;;5.60;82.80;;;;;;5044532;28;20036;-68
2021/12/01 00:51:56;;;;;;;0.82;0.80;;;5.60;82.90;;;;;;5047264;28;20075;-67
2021/12/01 00:54:21;;;;;;;0.77;0.70;;;5.60;82.80;;;;;;5047202;28;20124;-68
2021/12/01 00:56:49;;;;;;;1.40;0.70;;;5.60;83.00;;;;;;5045821;28;20704;-69
2021/12/01 00:59:15;;;;;;;0.95;0.52;;;5.60;83.00;;;;;;5046660;28;20064;-68
2021/12/01 01:01:42;;;;;;;0.80;0.77;;;5.60;83.10;;;;;;5046625;28;20044;-68
2021/12/01 01:04:08;;;;;;;0.93;0.80;;;5.60;83.20;;;;;;5045935;28;20052;-68
2021/12/01 01:06:34;;;;;;;2.60;0.82;;;5.60;83.20;;;;;;5043785;28;20033;-68
2021/12/01 01:09:01;;;;;;;0.85;0.70;;;5.70;83.20;;;;;;5046686;28;20472;-68
2021/12/01 01:16:58;;;;;;;0.80;0.73;;;5.70;83.80;;;;;;5044225;28;20039;-68
2021/12/01 01:19:25;;;;;;;0.80;0.65;;;5.70;83.10;;;;;;5045725;28;20029;-69
2021/12/01 01:21:52;;;;;;;0.60;0.52;;;5.70;83.30;;;;;;5037709;28;20041;-68
2021/12/01 01:24:19;;;;;;;0.80;0.80;;;5.70;83.30;;;;;;5039412;28;20075;-69
2021/12/01 01:26:45;;;;;;;0.60;0.60;;;5.60;83.30;;;;;;5036261;28;20380;-68
2021/12/01 01:29:11;;;;;;;1.95;0.70;;;5.70;83.40;;;;;;5037106;28;20139;-68
2021/12/01 01:31:37;;;;;;;0.88;0.80;;;5.70;84.20;;;;;;5036619;28;20055;-69
2021/12/01 01:34:03;;;;;;;0.82;0.80;;;5.80;83.50;;;;;;5033491;28;20029;-68
2021/12/01 01:36:29;;;;;;;0.63;0.60;;;5.80;83.50;;;;;;5039348;28;20029;-68
2021/12/01 01:38:57;;;;;;;0.60;0.60;;;5.80;83.50;;;;;;5036707;28;20029;-69
2021/12/01 01:41:23;;;;;;;0.88;0.80;;;5.80;83.60;;;;;;5036435;28;20029;-68
2021/12/01 01:43:50;;;;;;;0.90;0.73;;;5.80;83.50;;;;;;5039271;28;20074;-69
2021/12/01 01:46:16;;;;;;;0.70;0.70;;;5.80;83.50;;;;;;5040316;28;20047;-67
2021/12/01 01:49:17;;;;;;;0.80;0.80;;;5.90;83.50;;;;;;5041263;28;20591;-69
2021/12/01 01:51:35;;;;;;;1.38;0.93;;;5.90;84.40;;;;;;5037879;28;20037;-69
2021/12/01 01:54:00;;;;;;;2.78;0.90;;;5.90;83.60;;;;;;5043930;28;20436;-68
2021/12/01 01:56:28;;;;;;;0.90;0.90;;;5.90;83.50;;;;;;5036268;28;20030;-68
2021/12/01 01:58:54;;;;;;;0.70;0.70;;;5.90;83.60;;;;;;5039879;28;20034;-68
2021/12/01 02:03:56;;;;;;;0.90;0.90;;;5.90;83.50;;;;;;5039520;28;20037;-68
2021/12/01 02:06:25;;;;;;;0.90;0.70;;;6.00;83.70;;;;;;5040814;28;20067;-66
2021/12/01 02:08:53;;;;;;;0.70;0.70;;;6.00;83.50;;;;;;5042001;28;20052;-68
2021/12/01 02:11:20;;;;;;;0.70;0.70;;;6.00;83.50;;;;;;5038755;28;20044;-68
2021/12/01 02:13:47;;;;;;;0.93;0.70;;;6.00;83.50;;;;;;5036129;28;20037;-67
2021/12/01 02:16:14;;;;;;;0.40;0.40;;;6.00;83.40;;;;;;5038050;28;20044;-68
2021/12/01 02:18:40;;;;;;;0.60;0.57;;;6.10;83.40;;;;;;5040690;28;20040;-68
2021/12/01 02:21:17;;;;;;;0.50;0.50;;;6.10;83.40;;;;;;5034904;28;20112;-68
2021/12/01 02:23:46;;;;;;;1.15;0.60;;;6.10;83.40;;;;;;5044311;28;20044;-68
2021/12/01 02:26:14;;;;;;;0.43;0.40;;;6.20;83.40;;;;;;5043617;28;20759;-67
2021/12/01 02:28:42;;;;;;;0.50;0.40;;;6.10;83.40;;;;;;5038652;28;20091;-68
2021/12/01 02:31:08;;;;;;;0.90;0.50;;;6.20;83.30;;;;;;5035697;28;20037;-68
2021/12/01 02:33:34;;;;;;;1.27;0.50;;;6.10;83.30;;;;;;5034974;28;20033;-68
2021/12/01 02:35:59;;;;;;;0.50;0.50;;;6.20;83.30;;;;;;5039872;28;20041;-68
2021/12/01 02:38:26;;;;;;;0.68;0.68;;;6.20;83.30;;;;;;5044595;28;20044;-66
2021/12/01 02:40:52;;;;;;;0.30;0.30;;;6.20;83.30;;;;;;5042186;28;20045;-67
2021/12/01 02:43:21;;;;;;;0.60;0.50;;;6.20;83.30;;;;;;5036642;28;20581;-68
2021/12/01 02:45:53;;;;;;;0.50;0.50;;;6.30;83.30;;;;;;5040612;28;20409;-68
2021/12/01 02:48:20;;;;;;;0.45;0.45;;;6.30;83.30;;;;;;5035913;28;20025;-68
2021/12/01 02:50:46;;;;;;;0.50;0.50;;;6.30;83.20;;;;;;5034980;28;20041;-67
2021/12/01 02:53:13;;;;;;;0.50;0.50;;;6.30;83.20;;;;;;5041984;28;20437;-68
2021/12/01 02:55:54;;;;;;;0.40;0.40;;;6.30;83.20;;;;;;5038816;28;20118;-68
2021/12/01 02:58:21;;;;;;;1.20;0.40;;;6.30;83.30;;;;;;5041401;28;20036;-68
2021/12/01 03:00:48;;;;;;;0.40;0.40;;;6.30;83.20;;;;;;5042839;28;20044;-68
2021/12/01 03:03:14;;;;;;;0.40;0.40;;;6.40;83.20;;;;;;5040025;28;20261;-68
2021/12/01 03:05:45;;;;;;;0.47;0.47;;;6.40;83.20;;;;;;5037895;28;20504;-68
2021/12/01 03:08:11;;;;;;;1.15;0.50;;;6.40;83.10;;;;;;5042608;28;20032;-68
2021/12/01 03:10:36;;;;;;;0.75;0.50;;;6.40;83.10;;;;;;5041706;28;20036;-67
2021/12/01 03:13:02;;;;;;;0.85;0.70;;;6.40;83.10;;;;;;5040638;28;20498;-68
2021/12/01 03:15:28;;;;;;;0.98;0.50;;;6.40;83.00;;;;;;5042285;28;20036;-67
2021/12/01 03:17:53;;;;;;;0.50;0.50;;;6.50;83.10;;;;;;5044557;28;20086;-68
2021/12/01 03:20:22;;;;;;;0.50;0.40;;;6.50;83.00;;;;;;5042029;28;20132;-68
2021/12/01 03:22:48;;;;;;;0.40;0.40;;;6.50;83.00;;;;;;5038707;28;20112;-67
2021/12/01 03:25:14;;;;;;;0.40;0.40;;;6.50;83.00;;;;;;5036466;28;20029;-68
2021/12/01 03:27:41;;;;;;;1.50;0.50;;;6.60;83.00;;;;;;5036283;28;20029;-67
2021/12/01 03:30:11;;;;;;;0.38;0.38;;;6.60;82.90;;;;;;5035851;28;20104;-66
2021/12/01 03:32:38;;;;;;;0.85;0.40;;;6.60;82.80;;;;;;5038136;28;20580;-68
2021/12/01 03:35:07;;;;;;;1.02;0.60;;;6.70;82.90;;;;;;5033041;28;20107;-67
2021/12/01 03:37:32;;;;;;;0.63;0.40;;;6.70;82.80;;;;;;5039285;28;20508;-66
2021/12/01 03:39:59;;;;;;;0.40;0.40;;;6.70;82.70;;;;;;5039580;28;20040;-65
2021/12/01 03:42:25;;;;;;;0.73;0.50;;;6.70;82.60;;;;;;5034663;28;20090;-66
2021/12/01 03:44:52;;;;;;;0.70;0.40;;;6.70;82.50;;;;;;5040895;28;20424;-66
2021/12/01 03:47:18;;;;;;;1.05;0.60;;;6.70;82.50;;;;;;5042386;28;20508;-68
2021/12/01 03:49:43;;;;;;;1.17;0.60;;;6.70;82.40;;;;;;5040795;28;20036;-66
2021/12/01 03:52:14;;;;;;;0.55;0.55;;;6.70;82.40;;;;;;5045879;28;20044;-67
2021/12/01 03:54:40;;;;;;;0.82;0.60;;;6.70;82.30;;;;;;5041572;28;20377;-66
2021/12/01 03:57:06;;;;;;;0.95;0.77;;;6.80;82.40;;;;;;5040797;28;20040;-66
2021/12/01 03:59:31;;;;;;;1.80;1.00;;;6.80;82.30;;;;;;5043100;28;20472;-69
2021/12/01 04:01:57;;;;;;;0.77;0.70;;;6.80;82.30;;;;;;5041073;28;20071;-68
2021/12/01 04:04:23;;;;;;;1.75;1.00;;;6.80;82.20;;;;;;5042939;28;20079;-66
2021/12/01 04:06:48;;;;;;;2.47;1.20;;;6.80;82.20;;;;;;5042978;28;20048;-66
2021/12/01 04:09:14;;;;;;;2.00;1.40;;;6.80;82.20;;;;;;5044339;28;20029;-66
2021/12/01 04:11:39;;;;;;;1.65;0.73;;;6.80;82.30;;;;;;5040135;28;20472;-66
2021/12/01 04:14:05;;;;;;;0.50;0.45;;;6.90;82.40;;;;;;5039676;28;20025;-68
2021/12/01 04:16:31;;;;;;;0.70;0.60;;;6.80;82.20;;;;;;5041724;28;20804;-68
2021/12/01 04:18:56;;;;;;;0.80;0.70;;;6.80;82.20;;;;;;5040866;28;20029;-68
2021/12/01 04:21:24;;;;;;;1.45;0.47;;;6.80;82.20;;;;;;5040278;28;20063;-68
2021/12/01 04:23:50;;;;;;;5.63;3.50;;;6.80;82.30;;;;;;5043613;28;20420;-68
2021/12/01 04:26:19;;;;;;;9.48;5.20;;;6.80;82.30;;;;;;5044997;28;20037;-66
2021/12/01 04:28:45;;;;;;;12.98;6.93;;;6.80;82.30;;;;;;5040414;28;20053;-66
2021/12/01 04:31:12;;;;;;;5.72;3.58;;;6.80;82.40;;;;;;5038853;28;20578;-68
2021/12/01 04:33:37;;;;;;;5.20;3.63;;;6.80;82.40;;;;;;5042828;28;20033;-66
2021/12/01 04:36:03;;;;;;;10.70;6.43;;;6.80;82.30;;;;;;5037887;28;20041;-65
2021/12/01 04:38:30;;;;;;;4.40;2.78;;;6.80;82.30;;;;;;5038568;28;20502;-66
2021/12/01 04:40:55;;;;;;;9.00;5.47;;;6.80;83.20;;;;;;5038757;28;20064;-68
2021/12/01 04:43:21;;;;;;;38.17;19.30;;;6.80;82.20;;;;;;5042993;28;20527;-68
2021/12/01 04:45:52;;;;;;;3.47;2.70;;;6.80;83.10;;;;;;5040502;28;20169;-68
2021/12/01 04:48:18;;;;;;;5.20;4.00;;;6.80;82.40;;;;;;5035506;28;20036;-66
2021/12/01 04:50:43;;;;;;;6.82;5.15;;;6.80;82.40;;;;;;5040965;28;20400;-66
2021/12/01 04:53:09;;;;;;;5.28;4.18;;;6.80;82.40;;;;;;5039605;28;20033;-66
2021/12/01 04:55:34;;;;;;;6.55;3.65;;;6.80;82.30;;;;;;5043119;28;20033;-66
2021/12/01 04:58:00;;;;;;;5.28;3.95;;;6.80;82.20;;;;;;5040983;28;20041;-67
2021/12/01 05:00:27;;;;;;;17.10;9.25;;;6.80;82.20;;;;;;5042236;28;20029;-65
2021/12/01 05:02:54;;;;;;;23.38;12.35;;;6.80;82.20;;;;;;5041359;28;20052;-66
2021/12/01 05:05:19;;;;;;;77.07;36.30;;;6.80;82.20;;;;;;5041087;28;20036;-65
2021/12/01 05:07:45;;;;;;;19.05;10.10;;;6.80;82.10;;;;;;5037715;28;20041;-67
2021/12/01 05:10:11;;;;;;;10.27;6.43;;;6.80;82.00;;;;;;5037785;28;20038;-66
2021/12/01 05:12:37;;;;;;;1.55;1.45;;;6.80;82.00;;;;;;5037031;28;20044;-66
2021/12/01 05:15:05;;;;;;;1.65;1.25;;;6.80;82.00;;;;;;5040813;28;20052;-65
2021/12/01 05:17:31;;;;;;;2.00;1.20;;;6.80;81.90;;;;;;5040060;28;20037;-68
2021/12/01 05:19:57;;;;;;;1.60;1.50;;;6.90;81.90;;;;;;5040625;28;20036;-66
2021/12/01 05:22:22;;;;;;;1.63;1.52;;;6.80;81.90;;;;;;5040637;28;20107;-66
2021/12/01 05:24:48;;;;;;;1.58;1.30;;;6.90;81.90;;;;;;5038536;28;20056;-66
2021/12/01 05:27:14;;;;;;;2.25;1.15;;;6.80;81.90;;;;;;5039636;28;20072;-66
2021/12/01 05:29:40;;;;;;;1.10;1.00;;;6.80;81.90;;;;;;5045857;28;20029;-66
2021/12/01 05:32:06;;;;;;;0.73;0.73;;;6.80;81.80;;;;;;5043040;28;20516;-65
2021/12/01 05:34:31;;;;;;;0.85;0.70;;;6.80;81.70;;;;;;5037694;28;20075;-67
2021/12/01 05:37:00;;;;;;;2.00;0.80;;;6.80;81.70;;;;;;5040934;28;20546;-68
2021/12/01 05:39:32;;;;;;;2.03;0.70;;;6.80;81.70;;;;;;5038482;28;20046;-68
2021/12/01 05:41:58;;;;;;;0.65;0.65;;;6.80;81.60;;;;;;5041241;28;20501;-68
2021/12/01 05:44:24;;;;;;;1.63;0.73;;;6.90;81.60;;;;;;5040761;28;20598;-68
2021/12/01 05:46:50;;;;;;;1.40;0.70;;;6.90;81.60;;;;;;5037904;28;20048;-68
2021/12/01 05:49:15;;;;;;;2.22;1.00;;;6.90;81.50;;;;;;5039648;28;20773;-68
2021/12/01 05:51:42;;;;;;;0.80;0.80;;;6.90;81.50;;;;;;5041308;28;20043;-68
2021/12/01 05:54:08;;;;;;;1.30;0.82;;;6.90;81.30;;;;;;5039520;28;20037;-68
2021/12/01 05:56:33;;;;;;;1.67;1.58;;;6.90;81.30;;;;;;5041041;28;20029;-68
2021/12/01 05:58:59;;;;;;;1.33;1.20;;;6.90;81.30;;;;;;5039472;28;20489;-68
2021/12/01 06:01:25;;;;;;;2.25;1.83;;;6.90;81.30;;;;;;5041229;28;20029;-67
2021/12/01 06:03:50;;;;;;;3.25;2.95;;;6.90;81.20;;;;;;5033803;28;20152;-65
2021/12/01 06:06:16;;;;;;;2.00;1.80;;;6.90;81.20;;;;;;5039847;28;20045;-68
2021/12/01 06:08:42;;;;;;;3.92;2.95;;;6.90;81.10;;;;;;5042871;28;20112;-66
2021/12/01 06:11:08;;;;;;;4.93;4.00;;;6.90;81.00;;;;;;5039092;28;20102;-68
2021/12/01 06:13:34;;;;;;;1.42;1.33;;;6.90;80.90;;;;;;5041567;28;20037;-68
2021/12/01 06:16:00;;;;;;;5.55;4.25;;;6.90;80.80;;;;;;5039143;28;20087;-68
2021/12/01 06:18:26;;;;;;;1.70;1.55;;;6.90;80.70;;;;;;5040684;28;20127;-68
2021/12/01 06:20:52;;;;;;;1.63;1.10;;;6.90;80.60;;;;;;5043651;28;20052;-68
2021/12/01 06:23:18;;;;;;;4.25;1.13;;;6.90;80.60;;;;;;5045069;28;20029;-69
2021/12/01 06:25:43;;;;;;;1.20;1.10;;;6.90;80.60;;;;;;5044161;28;20106;-65
2021/12/01 06:28:09;;;;;;;1.55;1.10;;;6.80;80.50;;;;;;5044659;28;20098;-69
2021/12/01 06:30:37;;;;;;;2.20;1.33;;;6.90;80.50;;;;;;5043858;28;20033;-68
2021/12/01 06:33:03;;;;;;;1.40;1.30;;;6.80;80.50;;;;;;5038080;28;20416;-68
2021/12/01 06:35:28;;;;;;;1.02;1.00;;;6.90;80.50;;;;;;5038669;28;20033;-67
2021/12/01 06:37:55;;;;;;;1.83;1.20;;;6.80;80.40;;;;;;5034599;28;20526;-68
2021/12/01 06:40:22;;;;;;;1.55;1.00;;;6.80;80.40;;;;;;5037900;28;20029;-68
2021/12/01 06:42:48;;;;;;;1.27;1.17;;;6.80;80.40;;;;;;5039980;28;20090;-69
2021/12/01 06:45:16;;;;;;;1.30;1.08;;;6.70;80.30;;;;;;5042606;28;20033;-68
2021/12/01 06:47:42;;;;;;;1.60;1.35;;;6.70;80.40;;;;;;5041989;28;20056;-68
2021/12/01 06:50:09;;;;;;;1.98;1.20;;;6.70;80.40;;;;;;5036114;28;20041;-69
2021/12/01 06:52:35;;;;;;;1.25;1.15;;;6.70;80.30;;;;;;5035408;28;20748;-68
2021/12/01 06:55:02;;;;;;;0.95;0.88;;;6.70;80.30;;;;;;5039725;28;20040;-68
2021/12/01 06:57:28;;;;;;;2.10;1.15;;;6.70;80.40;;;;;;5037386;28;20099;-67
2021/12/01 06:59:53;;;;;;;1.10;1.00;;;6.70;80.30;;;;;;5041089;28;20032;-68
2021/12/01 07:02:19;;;;;;;1.15;0.93;;;6.70;81.10;;;;;;5037675;28;20040;-68
2021/12/01 07:04:45;;;;;;;1.23;1.13;;;6.60;80.20;;;;;;5035789;28;20045;-68
2021/12/01 07:07:11;;;;;;;0.90;0.90;;;6.60;80.10;;;;;;5037113;28;20041;-68
2021/12/01 07:09:37;;;;;;;1.55;1.23;;;6.60;80.00;;;;;;5037242;28;20033;-68
2021/12/01 07:12:03;;;;;;;1.58;1.48;;;6.60;80.20;;;;;;5034464;28;20041;-68
2021/12/01 07:14:29;;;;;;;2.30;1.40;;;6.60;80.20;;;;;;5035771;28;20036;-68
2021/12/01 07:16:55;;;;;;;2.83;1.83;;;6.50;80.20;;;;;;5038169;28;20033;-68
2021/12/01 07:19:21;;;;;;;1.80;1.60;;;6.60;80.20;;;;;;5035381;28;20066;-67
2021/12/01 07:21:47;;;;;;;1.33;1.23;;;6.60;80.30;;;;;;5038938;28;20140;-68
2021/12/01 07:24:13;;;;;;;1.55;1.30;;;6.50;80.20;;;;;;5046225;28;20124;-68
2021/12/01 07:26:39;;;;;;;1.83;1.33;;;6.60;80.40;;;;;;5038929;28;20506;-68
2021/12/01 07:29:05;;;;;;;1.60;1.50;;;6.60;80.40;;;;;;5047813;28;20041;-68
2021/12/01 07:31:31;;;;;;;3.60;2.85;;;6.60;80.40;;;;;;5039918;28;20033;-68
2021/12/01 07:33:56;;;;;;;1.90;1.70;;;6.60;80.40;;;;;;5039944;28;20033;-67
2021/12/01 07:36:22;;;;;;;2.05;1.60;;;6.60;80.40;;;;;;5037752;28;20063;-68
2021/12/01 07:38:50;;;;;;;6.53;4.65;;;6.60;80.30;;;;;;5029977;28;20036;-68
2021/12/01 07:41:16;;;;;;;3.05;2.75;;;6.60;80.20;;;;;;5032189;28;20033;-68
2021/12/01 07:43:42;;;;;;;1.42;1.33;;;6.60;80.10;;;;;;5031255;28;20126;-65
2021/12/01 07:46:08;;;;;;;2.13;1.75;;;6.70;80.10;;;;;;5027107;28;20041;-68
2021/12/01 07:48:33;;;;;;;2.90;2.60;;;6.60;80.00;;;;;;5035281;28;21317;-66
2021/12/01 07:50:59;;;;;;;1.90;1.30;;;6.60;80.00;;;;;;5028917;28;20071;-68
2021/12/01 07:53:25;;;;;;;2.67;1.48;;;6.70;80.10;;;;;;5028955;28;20056;-66
2021/12/01 07:55:51;;;;;;;1.40;1.27;;;6.70;80.00;;;;;;5031465;28;20045;-68
2021/12/01 07:58:16;;;;;;;1.20;1.10;;;6.70;80.00;;;;;;5031496;28;20528;-68
2021/12/01 08:00:42;;;;;;;1.55;0.90;;;6.70;79.80;;;;;;5028090;28;20052;-68
2021/12/01 08:03:07;;;;;;;1.02;0.90;;;6.70;79.80;;;;;;5033256;28;20113;-68
2021/12/01 08:05:33;;;;;;;1.02;0.98;;;6.70;79.80;;;;;;5030999;28;20041;-68
2021/12/01 08:07:59;;;;;;;3.22;2.88;;;6.70;79.60;;;;;;5029684;28;20099;-68
2021/12/01 08:10:24;;;;;;;1.40;1.30;;;6.70;79.70;;;;;;5029329;28;20600;-68
2021/12/01 08:12:51;;;;;;;1.25;1.15;;;6.70;79.70;;;;;;5030745;28;20029;-68
2021/12/01 08:15:17;;;;;;;1.20;1.10;;;6.70;79.80;;;;;;5034002;28;20033;-68
2021/12/01 08:17:42;;;;;;;1.20;1.10;;;6.70;79.80;;;;;;5028342;28;20028;-66
2021/12/01 08:20:09;;;;;;;2.03;1.75;;;6.70;79.80;;;;;;5028769;28;20516;-65
2021/12/01 08:22:35;;;;;;;1.38;1.20;;;6.70;79.70;;;;;;5033996;28;20042;-66
2021/12/01 08:25:01;;;;;;;1.20;1.05;;;6.70;79.80;;;;;;5033397;28;20091;-66
2021/12/01 08:27:28;;;;;;;1.73;0.77;;;6.70;79.80;;;;;;5029546;28;20524;-68
2021/12/01 08:29:54;;;;;;;1.70;1.10;;;6.70;79.80;;;;;;5029551;28;20034;-68
2021/12/01 08:32:19;;;;;;;1.50;1.15;;;6.80;79.90;;;;;;5031304;28;20690;-68
2021/12/01 08:34:49;;;;;;;1.33;0.90;;;6.80;79.80;;;;;;5031402;28;20057;-68
2021/12/01 08:37:18;;;;;;;1.02;0.98;;;6.80;79.90;;;;;;5041613;28;20035;-68
2021/12/01 08:39:44;;;;;;;2.38;1.02;;;6.80;79.60;;;;;;5039948;28;20025;-67
2021/12/01 08:42:12;;;;;;;1.08;0.85;;;6.90;79.50;;;;;;5040575;28;20083;-69
2021/12/01 08:44:45;;;;;;;1.55;1.30;;;6.90;79.40;;;;;;5040292;28;20531;-66
2021/12/01 08:47:12;;;;;;;1.27;1.00;;;7.00;79.30;;;;;;5035448;28;20060;-69
2021/12/01 08:49:39;;;;;;;1.10;1.00;;;7.00;79.40;;;;;;5036981;28;20081;-69
2021/12/01 08:52:05;;;;;;;1.48;1.23;;;7.00;79.30;;;;;;5040990;28;20041;-65
2021/12/01 08:54:30;;;;;;;2.08;1.10;;;7.00;79.10;;;;;;5041550;28;20040;-68
2021/12/01 08:56:57;;;;;;;1.30;1.20;;;7.00;79.00;;;;;;5035546;28;22786;-65
2021/12/01 08:59:23;;;;;;;1.10;1.00;;;7.10;78.90;;;;;;5038821;28;20038;-68
2021/12/01 09:01:49;;;;;;;1.23;1.13;;;7.10;79.00;;;;;;5034956;28;20053;-68
2021/12/01 09:04:14;;;;;;;0.93;0.93;;;7.10;79.00;;;;;;5039012;28;20041;-68
2021/12/01 09:06:40;;;;;;;2.00;1.13;;;7.10;78.90;;;;;;5034631;28;20095;-68
2021/12/01 09:09:06;;;;;;;1.85;1.40;;;7.10;78.90;;;;;;5041865;28;20034;-68
2021/12/01 09:11:31;;;;;;;1.60;1.40;;;7.20;79.00;;;;;;5037157;28;20416;-68
2021/12/01 09:13:57;;;;;;;1.80;1.40;;;7.20;79.10;;;;;;5042718;28;20452;-66
2021/12/01 09:16:23;;;;;;;1.63;1.20;;;7.20;78.90;;;;;;5042709;28;20037;-68
2021/12/01 09:18:49;;;;;;;1.10;1.00;;;7.30;78.80;;;;;;5040007;28;20040;-63
2021/12/01 09:21:14;;;;;;;1.52;0.95;;;7.30;78.80;;;;;;5037688;28;20404;-68
2021/12/01 09:23:40;;;;;;;1.10;1.00;;;7.30;78.40;;;;;;5042140;28;20064;-66
2021/12/01 09:26:06;;;;;;;1.33;1.20;;;7.40;78.70;;;;;;5042757;28;20033;-64
2021/12/01 09:28:32;;;;;;;1.58;1.08;;;7.50;78.80;;;;;;5043839;28;20025;-68
2021/12/01 09:30:58;;;;;;;1.48;1.15;;;7.50;78.70;;;;;;5040949;28;20072;-65
2021/12/01 09:33:25;;;;;;;1.13;1.02;;;7.60;78.70;;;;;;5042791;28;20513;-65
2021/12/01 09:35:51;;;;;;;1.20;1.00;;;7.60;78.50;;;;;;5041248;28;20063;-65
2021/12/01 09:38:18;;;;;;;1.33;1.23;;;7.70;78.40;;;;;;5036233;28;20248;-68
2021/12/01 09:40:48;;;;;;;1.30;1.20;;;7.80;78.20;;;;;;5042685;28;20038;-66
2021/12/01 09:43:16;;;;;;;1.98;1.55;;;7.80;77.90;;;;;;5038255;28;20029;-66
2021/12/01 09:45:42;;;;;;;1.48;1.38;;;7.80;77.70;;;;;;5040456;28;20030;-66
2021/12/01 09:48:08;;;;;;;1.60;1.50;;;7.90;77.70;;;;;;5043992;28;20377;-65
2021/12/01 09:50:33;;;;;;;1.45;1.20;;;8.00;77.60;;;;;;5039425;28;20040;-66
2021/12/01 09:52:59;;;;;;;4.40;1.52;;;8.00;77.60;;;;;;5042560;28;20033;-65
2021/12/01 09:55:25;;;;;;;1.50;1.40;;;8.00;77.80;;;;;;5042172;28;20033;-65
2021/12/01 09:57:55;;;;;;;1.92;1.30;;;8.10;77.30;;;;;;5043716;28;20029;-66
2021/12/01 10:00:20;;;;;;;1.40;1.30;;;8.10;77.00;;;;;;5042378;28;20083;-66
2021/12/01 10:02:46;;;;;;;1.70;1.60;;;8.10;77.00;;;;;;5043378;28;20033;-66
2021/12/01 10:05:12;;;;;;;1.80;1.52;;;8.20;76.90;;;;;;5039176;28;20064;-65
2021/12/01 10:07:37;;;;;;;1.70;1.40;;;8.20;76.50;;;;;;5039088;28;20071;-65
2021/12/01 10:10:09;;;;;;;1.70;1.60;;;8.20;76.80;;;;;;5038039;28;20645;-65
2021/12/01 10:12:50;;;;;;;1.73;1.63;;;8.30;77.00;;;;;;5032546;28;20472;-67
2021/12/01 10:15:31;;;;;;;2.08;1.50;;;8.30;76.40;;;;;;5033852;28;20036;-65
2021/12/01 10:18:14;;;;;;;4.05;1.42;;;8.40;76.10;;;;;;5046494;28;20041;-66
2021/12/01 10:20:41;;;;;;;1.88;1.60;;;8.40;75.70;;;;;;5046041;28;20108;-66
2021/12/01 10:23:16;;;;;;;1.40;1.30;;;8.40;76.80;;;;;;5045129;28;20041;-67
2021/12/01 10:25:42;;;;;;;1.58;1.27;;;8.40;75.80;;;;;;5045717;28;20177;-66
2021/12/01 10:28:13;;;;;;;1.30;1.20;;;8.40;76.00;;;;;;5044744;28;20029;-66
2021/12/01 10:30:46;;;;;;;1.77;1.40;;;8.40;75.90;;;;;;5044652;28;20594;-66
2021/12/01 10:33:12;;;;;;;2.33;1.40;;;8.40;75.60;;;;;;5044043;28;20029;-66
2021/12/01 10:35:39;;;;;;;1.42;1.33;;;8.40;75.80;;;;;;5042626;28;20040;-67
2021/12/01 10:38:07;;;;;;;1.70;1.60;;;8.40;75.70;;;;;;5046618;28;20040;-64
2021/12/01 10:40:34;;;;;;;1.95;1.10;;;8.40;75.80;;;;;;5046173;28;20029;-66
2021/12/01 10:43:09;;;;;;;2.85;1.40;;;8.40;75.70;;;;;;5044520;28;21622;-66
2021/12/01 10:45:38;;;;;;;1.27;1.15;;;8.40;75.60;;;;;;5043617;28;20439;-67
2021/12/01 10:48:07;;;;;;;1.63;1.10;;;8.50;75.80;;;;;;5043249;28;20051;-67
2021/12/01 10:50:35;;;;;;;1.30;1.20;;;8.50;75.90;;;;;;5045222;28;20037;-67
2021/12/01 10:53:12;;;;;;;1.58;0.98;;;8.50;75.80;;;;;;5046122;28;20033;-67
2021/12/01 10:55:50;;;;;;;1.10;1.00;;;8.50;75.60;;;;;;5047976;28;20045;-66
2021/12/01 10:58:16;;;;;;;1.60;0.95;;;8.50;75.50;;;;;;5049767;28;20041;-68
2021/12/01 11:00:46;;;;;;;0.73;0.65;;;8.50;75.80;;;;;;5047181;28;20033;-67
2021/12/01 11:03:19;;;;;;;0.73;0.68;;;8.50;75.60;;;;;;5041903;28;20127;-68
2021/12/01 11:05:47;;;;;;;3.60;0.88;;;8.60;75.90;;;;;;5020201;28;20093;-67
2021/12/01 11:08:16;;;;;;;0.82;0.65;;;8.60;76.90;;;;;;5048708;28;20487;-67
2021/12/01 11:10:44;;;;;;;0.70;0.70;;;8.70;76.30;;;;;;5043820;28;20047;-67
2021/12/01 11:13:11;;;;;;;3.25;0.77;;;8.70;76.60;;;;;;5043615;28;20033;-67
2021/12/01 11:15:39;;;;;;;5.53;0.70;;;8.80;76.60;;;;;;5047029;28;20087;-67
2021/12/01 11:18:08;;;;;;;1.25;0.57;;;8.90;76.60;;;;;;5047699;28;20040;-67
2021/12/01 11:20:47;;;;;;;1.00;0.80;;;9.10;76.50;;;;;;5042590;28;20488;-67
2021/12/01 11:23:22;;;;;;;9.57;1.30;;;9.20;76.10;;;;;;5048798;28;20036;-68
2021/12/01 11:25:53;;;;;;;;;;;9.40;76.10;;;;;;5048492;28;20036;-67
2021/12/01 11:28:21;;;;;;;1.40;0.60;;;9.50;75.00;;;;;;5050076;28;19943;-67
2021/12/01 11:30:50;;;;;;;3.47;0.70;;;9.70;75.60;;;;;;5048140;28;20029;-67
2021/12/01 11:33:18;;;;;;;2.28;0.60;;;9.70;74.90;;;;;;5047796;28;21143;-67
2021/12/01 11:35:54;;;;;;;3.00;0.60;;;9.80;75.00;;;;;;5048949;28;20116;-68
2021/12/01 11:38:20;;;;;;;1.85;0.50;;;9.90;74.10;;;;;;5048519;28;20554;-68
2021/12/01 11:40:47;;;;;;;0.65;0.55;;;10.00;74.40;;;;;;5049955;28;20492;-67
2021/12/01 11:43:15;;;;;;;5.32;0.70;;;10.10;74.00;;;;;;5048426;28;20041;-68
2021/12/01 11:45:43;;;;;;;3.75;3.45;;;10.10;74.00;;;;;;5045886;28;20037;-67
2021/12/01 11:48:20;;;;;;;1.70;1.60;;;10.20;73.80;;;;;;5048894;28;20033;-66
2021/12/01 11:51:08;;;;;;;1.35;0.63;;;10.30;73.50;;;;;;5048951;28;20132;-67
2021/12/01 11:53:40;;;;;;;3.55;0.70;;;10.30;73.30;;;;;;5048215;28;20068;-67
2021/12/01 11:56:14;;;;;;;3.05;0.75;;;10.30;73.00;;;;;;5048115;28;20056;-66
2021/12/01 11:58:42;;;;;;;0.80;0.50;;;10.40;72.60;;;;;;5043430;28;20136;-67
2021/12/01 12:01:20;;;;;;;3.65;0.73;;;10.40;72.90;;;;;;5048723;28;20087;-68
2021/12/01 12:04:06;;;;;;;0.50;0.50;;;10.40;72.10;;;;;;5046845;28;20025;-67
2021/12/01 12:06:46;;;;;;;0.68;0.55;;;10.40;72.60;;;;;;5041746;28;20037;-67
2021/12/01 12:09:18;;;;;;;1.50;0.52;;;10.40;72.10;;;;;;5045959;28;20029;-67
2021/12/01 12:11:59;;;;;;;1.25;0.50;;;10.40;72.30;;;;;;5041159;28;20070;-67
2021/12/01 12:14:31;;;;;;;4.55;0.60;;;10.40;71.30;;;;;;5049036;28;20029;-68
2021/12/01 12:17:00;;;;;;;2.35;0.50;;;10.40;71.70;;;;;;5047259;28;20458;-67
2021/12/01 12:19:51;;;;;;;6.78;1.02;;;10.40;72.00;;;;;;5047563;28;20025;-67
2021/12/01 12:22:38;;;;;;;2.25;0.50;;;10.40;71.30;;;;;;5046689;28;20030;-67
2021/12/01 12:25:09;;;;;;;1.13;0.35;;;10.50;71.90;;;;;;5046750;28;20043;-68
2021/12/01 12:27:40;;;;;;;2.95;0.90;;;10.50;71.80;;;;;;5046950;28;20407;-66
2021/12/01 12:30:08;;;;;;;3.60;0.90;;;10.50;71.60;;;;;;5046794;28;20164;-66
2021/12/01 12:32:34;;;;;;;2.33;0.90;;;10.50;71.30;;;;;;5046257;28;20037;-67
2021/12/01 12:35:08;;;;;;;4.10;0.70;;;10.50;71.60;;;;;;5047490;28;20045;-66
2021/12/01 12:37:35;;;;;;;0.50;0.40;;;10.50;70.60;;;;;;5047717;28;20037;-65
2021/12/01 12:40:06;;;;;;;1.63;0.50;;;10.50;70.70;;;;;;5048929;28;20506;-68
2021/12/01 12:42:31;;;;;;;1.75;0.38;;;10.50;70.00;;;;;;5047110;28;20041;-67
2021/12/01 12:44:58;;;;;;;1.75;0.50;;;10.50;70.70;;;;;;5046538;28;20098;-67
2021/12/01 12:47:30;;;;;;;2.45;0.50;;;10.50;70.80;;;;;;5045962;28;20045;-66
2021/12/01 12:50:12;;;;;;;5.00;0.63;;;10.50;70.30;;;;;;5047296;28;20048;-67
2021/12/01 12:52:41;;;;;;;3.15;0.43;;;10.50;70.40;;;;;;5046443;28;20041;-66
2021/12/01 12:55:09;;;;;;;0.73;0.40;;;10.50;70.20;;;;;;5048067;28;20028;-69
2021/12/01 12:57:49;;;;;;;2.55;0.50;;;10.50;70.10;;;;;;5047505;28;20163;-67
2021/12/01 13:00:21;;;;;;;0.75;0.50;;;10.50;69.70;;;;;;5046255;28;20065;-66
2021/12/01 13:02:47;;;;;;;4.40;0.55;;;10.50;70.10;;;;;;5047337;28;20032;-66
2021/12/01 13:05:13;;;;;;;6.13;0.77;;;10.50;70.20;;;;;;5046147;28;20552;-67
2021/12/01 13:07:47;;;;;;;1.10;0.28;;;10.50;70.30;;;;;;5047107;28;20041;-66